createdAt,value
2022-08-16T00:02:34.311Z,84.20
2022-08-16T00:05:02.546Z,83.00
2022-08-16T00:07:30.176Z,83.90
2022-08-16T00:10:00.521Z,84.00
2022-08-16T00:12:29.654Z,83.60
2022-08-16T00:14:59.790Z,83.10
2022-08-16T00:17:28.248Z,83.30
2022-08-16T00:19:56.296Z,84.50
2022-08-16T00:22:25.679Z,70.90
2022-08-16T00:24:54.990Z,84.50
2022-08-16T00:27:23.304Z,84.30
2022-08-16T00:30:08.682Z,70.50
2022-08-16T00:32:38.657Z,84.40
2022-08-16T00:35:15.202Z,83.60
2022-08-16T00:37:57.374Z,83.80
2022-08-16T00:40:50.834Z,71.90
2022-08-16T00:43:24.904Z,73.30
2022-08-16T00:46:33.197Z,86.10
2022-08-16T00:51:29.638Z,85.80
2022-08-16T00:53:58.473Z,72.80
2022-08-16T00:56:58.208Z,72.90
2022-08-16T00:59:23.759Z,73.10
2022-08-16T01:04:30.104Z,73.20
2022-08-16T01:07:01.919Z,86.80
2022-08-16T01:09:34.339Z,85.80
2022-08-16T01:12:08.471Z,87.20
2022-08-16T01:14:47.846Z,73.40
2022-08-16T01:17:16.133Z,87.20
2022-08-16T01:19:48.724Z,85.90
2022-08-16T01:22:48.497Z,73.80
2022-08-16T01:25:16.544Z,86.60
2022-08-16T01:27:50.867Z,87.60
2022-08-16T01:30:32.539Z,75.10
2022-08-16T01:33:15.305Z,74.00
2022-08-16T01:35:52.414Z,72.50
2022-08-16T01:38:25.789Z,74.20
2022-08-16T01:40:58.826Z,74.00
2022-08-16T01:43:31.602Z,74.00
2022-08-16T01:46:29.332Z,74.70
2022-08-16T01:51:18.346Z,74.60
2022-08-16T01:53:54.529Z,88.60
2022-08-16T01:56:30.719Z,80.30
2022-08-16T01:59:00.279Z,88.70
2022-08-16T02:01:28.756Z,74.60
2022-08-16T02:03:58.433Z,87.70
2022-08-16T02:06:34.263Z,74.90
2022-08-16T02:09:07.294Z,80.60
2022-08-16T02:11:47.379Z,89.10
2022-08-16T02:14:18.624Z,89.00
2022-08-16T02:16:49.635Z,89.20
2022-08-16T02:19:18.429Z,75.60
2022-08-16T02:22:09.006Z,75.70
2022-08-16T02:24:42.275Z,75.80
2022-08-16T02:29:43.038Z,88.30
2022-08-16T02:32:50.678Z,89.20
2022-08-16T02:40:17.482Z,89.80
2022-08-16T02:42:45.328Z,76.20
2022-08-16T02:45:15.697Z,89.80
2022-08-16T02:48:01.534Z,89.20
2022-08-16T02:51:05.807Z,89.90
2022-08-16T02:53:23.535Z,77.70
2022-08-16T02:58:25.105Z,81.20
2022-08-16T03:00:55.971Z,89.80
2022-08-16T03:04:41.058Z,90.40
2022-08-16T03:06:41.904Z,89.30
2022-08-16T03:09:16.254Z,90.40
2022-08-16T03:11:47.544Z,90.40
2022-08-16T03:14:15.039Z,90.10
2022-08-16T03:17:00.390Z,89.40
2022-08-16T03:19:47.383Z,90.10
2022-08-16T03:22:19.220Z,90.20
2022-08-16T03:24:57.401Z,90.20
2022-08-16T03:27:30.986Z,91.00
2022-08-16T03:30:01.053Z,90.30
2022-08-16T03:32:29.355Z,90.90
2022-08-16T03:34:56.084Z,90.70
2022-08-16T03:37:23.663Z,91.10
2022-08-16T03:39:56.421Z,90.80
2022-08-16T03:42:26.953Z,91.00
2022-08-16T03:47:34.271Z,91.10
2022-08-16T03:50:04.250Z,90.70
2022-08-16T03:52:51.183Z,91.30
2022-08-16T03:55:25.895Z,91.30
2022-08-16T03:58:07.731Z,90.80
2022-08-16T04:03:12.755Z,90.90
2022-08-16T04:05:48.334Z,91.00
2022-08-16T04:08:23.417Z,91.00
2022-08-16T04:10:55.481Z,91.30
2022-08-16T04:13:59.345Z,91.30
2022-08-16T04:16:26.558Z,91.60
2022-08-16T04:19:02.473Z,91.70
2022-08-16T04:21:34.550Z,85.30
2022-08-16T04:24:02.147Z,81.70
2022-08-16T04:26:31.086Z,91.80
2022-08-16T04:29:16.590Z,91.50
2022-08-16T04:31:55.703Z,84.00
2022-08-16T04:34:31.329Z,81.60
2022-08-16T04:37:01.329Z,80.80
2022-08-16T04:39:46.242Z,92.10
2022-08-16T04:42:18.918Z,81.60
2022-08-16T04:44:55.908Z,91.80
2022-08-16T04:47:31.332Z,92.30
2022-08-16T04:52:34.941Z,91.70
2022-08-16T04:55:13.340Z,81.40
2022-08-16T04:57:44.059Z,80.80
2022-08-16T05:00:30.597Z,92.30
2022-08-16T05:03:13.473Z,81.50
2022-08-16T05:05:55.220Z,81.80
2022-08-16T05:08:29.095Z,92.00
2022-08-16T05:11:10.770Z,92.00
2022-08-16T05:13:42.539Z,82.20
2022-08-16T05:16:21.785Z,81.10
2022-08-16T05:18:56.851Z,91.80
2022-08-16T05:24:02.780Z,89.50
2022-08-16T05:26:33.405Z,91.90
2022-08-16T05:29:04.508Z,92.00
2022-08-16T05:31:32.559Z,91.70
2022-08-16T05:34:04.379Z,80.00
2022-08-16T05:39:09.743Z,90.60
2022-08-16T05:44:23.009Z,91.50
2022-08-16T05:46:52.946Z,79.70
2022-08-16T05:49:22.249Z,90.60
2022-08-16T05:51:55.056Z,91.40
2022-08-16T05:54:24.927Z,80.60
2022-08-16T05:56:57.343Z,90.10
2022-08-16T05:59:26.870Z,91.40
2022-08-16T06:01:54.785Z,91.00
2022-08-16T06:12:27.262Z,78.20
2022-08-16T06:15:01.627Z,77.90
2022-08-16T06:17:42.998Z,90.00
2022-08-16T06:20:23.505Z,90.70
2022-08-16T06:25:39.516Z,91.10
2022-08-16T06:28:09.681Z,90.00
2022-08-16T06:30:43.814Z,86.70
2022-08-16T06:33:19.872Z,85.30
2022-08-16T06:35:59.364Z,80.80
2022-08-16T06:38:32.715Z,77.10
2022-08-16T06:41:07.203Z,77.60
2022-08-16T06:43:41.608Z,75.20
2022-08-16T06:46:36.807Z,63.70
2022-08-16T06:49:11.660Z,71.50
2022-08-16T06:51:46.419Z,70.40
2022-08-16T06:54:17.875Z,68.70
2022-08-16T06:56:44.776Z,68.10
2022-08-16T06:59:14.493Z,66.50
2022-08-16T07:01:53.411Z,64.70
2022-08-16T07:04:32.586Z,65.00
2022-08-16T07:07:05.509Z,50.00
2022-08-16T07:09:32.798Z,63.10
2022-08-16T07:12:03.495Z,61.30
2022-08-16T07:14:35.157Z,60.00
2022-08-16T07:17:08.150Z,59.90
2022-08-16T07:22:36.518Z,58.60
2022-08-16T07:25:11.903Z,58.10
2022-08-16T07:30:26.623Z,54.10
2022-08-16T07:33:05.301Z,56.40
2022-08-16T07:35:34.626Z,53.20
2022-08-16T07:38:01.522Z,53.40
2022-08-16T07:41:01.030Z,49.50
2022-08-16T07:43:28.794Z,35.90
2022-08-16T07:45:59.433Z,48.70
2022-08-16T07:48:28.938Z,35.00
2022-08-16T07:50:59.596Z,44.60
2022-08-16T07:53:31.708Z,42.90
2022-08-16T07:56:00.436Z,44.30
2022-08-16T07:58:36.476Z,45.70
2022-08-16T08:01:11.053Z,42.40
2022-08-16T08:03:48.929Z,30.10
2022-08-16T08:06:19.207Z,41.90
2022-08-16T08:08:50.724Z,42.80
2022-08-16T08:11:23.593Z,41.50
2022-08-16T08:13:53.603Z,42.00
2022-08-16T08:16:21.866Z,43.70
2022-08-16T08:19:02.818Z,30.60
2022-08-16T08:22:00.150Z,41.60
2022-08-16T08:24:32.298Z,41.50
2022-08-16T08:27:02.442Z,30.70
2022-08-16T08:29:37.725Z,41.50
2022-08-16T08:32:51.185Z,28.90
2022-08-16T08:35:03.221Z,29.00
2022-08-16T08:37:54.471Z,29.10
2022-08-16T08:40:19.194Z,27.20
2022-08-16T08:42:52.091Z,27.90
2022-08-16T08:45:47.033Z,27.40
2022-08-16T08:48:33.705Z,27.30
2022-08-16T08:51:09.543Z,25.50
2022-08-16T08:53:57.530Z,26.50
2022-08-16T08:56:29.936Z,26.50
2022-08-16T08:59:13.361Z,37.70
2022-08-16T09:01:57.452Z,26.80
2022-08-16T09:04:29.592Z,39.90
2022-08-16T09:06:58.495Z,27.00
2022-08-16T09:09:33.340Z,28.00
2022-08-16T09:12:06.172Z,26.90
2022-08-16T09:14:49.508Z,26.00
2022-08-16T09:17:45.370Z,25.00
2022-08-16T09:20:13.457Z,25.10
2022-08-16T09:22:41.782Z,24.60
2022-08-16T09:25:12.471Z,24.80
2022-08-16T09:27:57.353Z,24.30
2022-08-16T09:30:31.835Z,24.50
2022-08-16T09:33:01.861Z,24.30
2022-08-16T09:35:29.256Z,32.70
2022-08-16T09:38:00.840Z,34.70
2022-08-16T09:40:32.775Z,23.90
2022-08-16T09:43:46.371Z,24.70
2022-08-16T09:46:04.272Z,25.10
2022-08-16T09:48:52.847Z,24.30
2022-08-16T09:51:26.159Z,22.80
2022-08-16T09:54:03.616Z,22.90
2022-08-16T09:56:35.366Z,23.50
2022-08-16T09:59:07.812Z,24.00
2022-08-16T10:01:45.828Z,23.80
2022-08-16T10:04:29.922Z,24.30
2022-08-16T10:09:45.107Z,23.10
2022-08-16T10:12:34.397Z,22.70
2022-08-16T10:15:01.150Z,23.00
2022-08-16T10:17:28.949Z,24.60
2022-08-16T10:19:56.185Z,22.60
2022-08-16T10:22:23.272Z,23.00
2022-08-16T10:24:55.793Z,22.90
2022-08-16T10:27:30.030Z,22.80
2022-08-16T10:30:24.988Z,23.00
2022-08-16T10:32:53.140Z,30.00
2022-08-16T10:35:19.865Z,24.20
2022-08-16T10:37:46.606Z,32.20
2022-08-16T10:40:28.805Z,31.30
2022-08-16T10:42:57.787Z,23.80
2022-08-16T10:45:25.432Z,22.90
2022-08-16T10:48:02.956Z,23.50
2022-08-16T10:50:32.606Z,31.30
2022-08-16T10:53:00.505Z,22.00
2022-08-16T10:55:44.548Z,21.80
2022-08-16T10:58:17.008Z,22.40
2022-08-16T11:00:46.326Z,28.60
2022-08-16T11:06:01.003Z,23.40
2022-08-16T11:08:36.165Z,22.20
2022-08-16T11:11:11.382Z,24.20
2022-08-16T11:13:58.727Z,23.30
2022-08-16T11:17:01.967Z,24.30
2022-08-16T11:19:15.466Z,25.00
2022-08-16T11:24:41.368Z,27.20
2022-08-16T11:27:23.455Z,39.00
2022-08-16T11:29:55.218Z,40.60
2022-08-16T11:32:31.277Z,39.70
2022-08-16T11:35:13.796Z,30.20
2022-08-16T11:38:46.897Z,37.90
2022-08-16T11:40:52.648Z,26.30
2022-08-16T11:43:23.695Z,24.60
2022-08-16T11:45:54.703Z,23.80
2022-08-16T11:48:25.656Z,30.60
2022-08-16T11:50:52.713Z,22.50
2022-08-16T11:53:22.050Z,22.30
2022-08-16T11:55:50.654Z,23.60
2022-08-16T11:58:24.669Z,29.40
2022-08-16T12:00:53.489Z,23.00
2022-08-16T12:03:34.345Z,29.20
2022-08-16T12:06:11.020Z,27.30
2022-08-16T12:08:55.751Z,20.40
2022-08-16T12:11:23.544Z,19.70
2022-08-16T12:13:54.083Z,19.90
2022-08-16T12:16:21.440Z,20.40
2022-08-16T12:21:21.099Z,19.60
2022-08-16T12:23:49.482Z,21.40
2022-08-16T12:26:17.322Z,21.40
2022-08-16T12:28:54.753Z,22.40
2022-08-16T12:31:23.989Z,23.10
2022-08-16T12:33:54.178Z,24.40
2022-08-16T12:36:23.652Z,25.50
2022-08-16T12:38:51.047Z,26.70
2022-08-16T12:41:24.502Z,38.40
2022-08-16T12:43:57.075Z,27.90
2022-08-16T12:46:28.444Z,40.70
2022-08-16T12:48:57.946Z,40.20
2022-08-16T12:51:33.144Z,41.60
2022-08-16T12:54:18.888Z,41.20
2022-08-16T12:56:46.809Z,42.80
2022-08-16T12:59:20.173Z,41.70
2022-08-16T13:01:50.615Z,43.90
2022-08-16T13:04:25.821Z,43.20
2022-08-16T13:06:53.286Z,41.60
2022-08-16T13:09:26.630Z,42.00
2022-08-16T13:12:16.602Z,30.10
2022-08-16T13:14:45.138Z,43.40
2022-08-16T13:17:18.711Z,45.30
2022-08-16T13:22:44.641Z,43.00
2022-08-16T13:25:19.465Z,43.20
2022-08-16T13:28:01.427Z,43.20
2022-08-16T13:30:37.214Z,43.30
2022-08-16T13:33:11.525Z,43.30
2022-08-16T13:35:46.659Z,42.70
2022-08-16T13:40:57.212Z,42.80
2022-08-16T13:43:26.878Z,42.50
2022-08-16T13:45:56.157Z,42.70
2022-08-16T13:48:25.909Z,43.90
2022-08-16T13:50:55.184Z,43.20
2022-08-16T13:53:25.034Z,42.20
2022-08-16T13:55:58.968Z,42.20
2022-08-16T13:58:35.472Z,30.40
2022-08-16T14:01:09.955Z,44.70
2022-08-16T14:03:41.028Z,43.50
2022-08-16T14:06:10.911Z,30.80
2022-08-16T14:08:42.132Z,45.60
2022-08-16T14:11:11.987Z,44.80
2022-08-16T14:13:39.483Z,45.00
2022-08-16T14:16:12.484Z,46.90
2022-08-16T14:18:53.000Z,45.70
2022-08-16T14:21:22.153Z,46.20
2022-08-16T14:23:52.048Z,47.40
2022-08-16T14:26:21.070Z,34.80
2022-08-16T14:28:50.277Z,47.90
2022-08-16T14:31:17.990Z,47.40
2022-08-16T14:33:45.088Z,47.30
2022-08-16T14:36:12.352Z,47.20
2022-08-16T14:38:45.587Z,48.70
2022-08-16T14:41:13.685Z,48.00
2022-08-16T14:43:40.685Z,47.70
2022-08-16T14:46:07.753Z,47.60
2022-08-16T14:48:34.700Z,48.60
2022-08-16T14:51:01.757Z,48.60
2022-08-16T14:53:28.690Z,48.40
2022-08-16T14:55:58.427Z,48.70
2022-08-16T14:58:34.823Z,49.10
2022-08-16T15:01:06.185Z,50.80
2022-08-16T15:03:37.534Z,49.10
2022-08-16T15:06:05.115Z,48.00
2022-08-16T15:08:36.817Z,47.70
2022-08-16T15:11:05.651Z,48.10
2022-08-16T15:13:32.869Z,48.00
2022-08-16T15:16:02.838Z,47.80
2022-08-16T15:18:31.692Z,35.50
2022-08-16T15:23:26.872Z,49.10
2022-08-16T15:26:02.666Z,48.90
2022-08-16T15:31:03.366Z,48.00
2022-08-16T15:33:32.827Z,49.80
2022-08-16T15:36:00.030Z,36.50
2022-08-16T15:38:54.744Z,48.80
2022-08-16T15:41:38.939Z,36.50
2022-08-16T15:44:14.531Z,36.40
2022-08-16T15:46:56.292Z,41.30
2022-08-16T15:49:37.388Z,49.80
2022-08-16T15:52:12.316Z,50.20
2022-08-16T15:54:52.711Z,52.40
2022-08-16T15:57:24.229Z,53.80
2022-08-16T15:59:52.657Z,51.80
2022-08-16T16:02:29.785Z,39.00
2022-08-16T16:05:01.541Z,52.30
2022-08-16T16:07:30.315Z,40.20
2022-08-16T16:09:59.338Z,40.90
2022-08-16T16:12:51.076Z,53.30
2022-08-16T16:15:20.272Z,54.60
2022-08-16T16:17:52.295Z,54.80
2022-08-16T16:20:27.513Z,54.60
2022-08-16T16:23:02.648Z,55.00
2022-08-16T16:25:31.293Z,52.80
2022-08-16T16:28:00.211Z,52.90
2022-08-16T16:30:37.181Z,54.60
2022-08-16T16:33:11.480Z,53.40
2022-08-16T16:35:42.225Z,52.10
2022-08-16T16:38:15.437Z,53.80
2022-08-16T16:40:46.417Z,39.90
2022-08-16T16:43:25.677Z,54.10
2022-08-16T16:45:58.212Z,53.40
2022-08-16T16:48:29.591Z,52.40
2022-08-16T16:51:04.236Z,51.60
2022-08-16T16:53:37.526Z,52.30
2022-08-16T16:56:08.954Z,53.00
2022-08-16T16:59:00.939Z,39.70
2022-08-16T17:02:00.100Z,39.10
2022-08-16T17:04:38.828Z,54.50
2022-08-16T17:07:10.733Z,52.50
2022-08-16T17:09:39.486Z,55.30
2022-08-16T17:12:07.786Z,55.90
2022-08-16T17:14:35.616Z,56.10
2022-08-16T17:17:08.781Z,54.80
2022-08-16T17:19:40.263Z,55.60
2022-08-16T17:22:15.441Z,55.50
2022-08-16T17:24:50.768Z,57.70
2022-08-16T17:27:32.933Z,56.80
2022-08-16T17:30:29.332Z,57.40
2022-08-16T17:33:00.556Z,57.70
2022-08-16T17:35:36.643Z,44.50
2022-08-16T17:38:07.368Z,60.10
2022-08-16T17:40:47.077Z,59.50
2022-08-16T17:43:33.355Z,61.00
2022-08-16T17:46:00.959Z,61.50
2022-08-16T17:48:28.405Z,60.40
2022-08-16T17:55:51.044Z,61.10
2022-08-16T17:58:22.278Z,56.40
2022-08-16T18:01:01.641Z,63.50
2022-08-16T18:04:07.148Z,63.30
2022-08-16T18:06:28.371Z,62.00
2022-08-16T18:09:01.787Z,62.10
2022-08-16T18:11:32.787Z,63.40
2022-08-16T18:13:59.709Z,63.40
2022-08-16T18:18:53.775Z,63.00
2022-08-16T18:21:39.689Z,62.60
2022-08-16T18:26:33.723Z,64.60
2022-08-16T18:29:00.420Z,65.00
2022-08-16T18:33:55.821Z,64.30
2022-08-16T18:41:19.178Z,66.10
2022-08-16T18:44:22.346Z,64.70
2022-08-16T18:51:26.960Z,65.20
2022-08-16T19:01:15.438Z,66.20
2022-08-16T19:03:42.159Z,66.10
2022-08-16T19:06:13.920Z,53.40
2022-08-16T19:08:43.720Z,66.50
2022-08-16T19:11:13.832Z,66.10
2022-08-16T19:16:10.771Z,62.30
2022-08-16T19:21:06.133Z,53.40
2022-08-16T19:23:36.056Z,54.70
2022-08-16T19:26:25.665Z,67.70
2022-08-16T19:31:32.294Z,56.20
2022-08-16T19:33:59.612Z,68.10
2022-08-16T19:36:36.712Z,68.50
2022-08-16T19:39:14.622Z,54.50
2022-08-16T19:41:45.007Z,70.50
2022-08-16T19:46:43.447Z,55.50
2022-08-16T19:54:10.524Z,69.60
2022-08-16T19:56:37.200Z,70.50
2022-08-16T19:59:21.573Z,71.50
2022-08-16T20:01:51.532Z,71.90
2022-08-16T20:06:45.442Z,72.30
2022-08-16T20:09:15.180Z,73.30
2022-08-16T20:11:47.633Z,72.70
2022-08-16T20:14:24.381Z,72.80
2022-08-16T20:16:57.216Z,60.60
2022-08-16T20:19:28.225Z,60.80
2022-08-16T20:21:56.571Z,74.40
2022-08-16T20:27:04.085Z,75.40
2022-08-16T20:29:30.958Z,76.20
2022-08-16T20:31:57.916Z,75.20
2022-08-16T20:39:18.879Z,76.10
2022-08-16T20:41:45.524Z,77.10
2022-08-16T20:44:12.671Z,77.10
2022-08-16T20:46:40.025Z,77.00
2022-08-16T20:49:09.294Z,64.20
2022-08-16T20:51:49.366Z,63.90
2022-08-16T20:54:18.078Z,78.10
2022-08-16T21:04:18.947Z,78.10
2022-08-16T21:09:26.709Z,79.10
2022-08-16T21:11:55.723Z,66.30
2022-08-16T21:16:50.307Z,66.20
2022-08-16T21:24:11.451Z,80.00
2022-08-16T21:26:39.168Z,79.10
2022-08-16T21:29:07.685Z,70.00
2022-08-16T21:31:39.417Z,80.10
2022-08-16T21:34:06.691Z,79.60
2022-08-16T21:36:34.841Z,79.60
2022-08-16T21:39:05.542Z,68.00
2022-08-16T21:44:00.508Z,81.60
2022-08-16T21:48:54.349Z,81.90
2022-08-16T21:58:45.645Z,68.10
2022-08-16T22:01:13.045Z,68.10
2022-08-16T22:08:50.396Z,69.00
2022-08-16T22:11:19.658Z,81.70
2022-08-16T22:13:51.331Z,74.40
2022-08-16T22:16:28.979Z,69.20
2022-08-16T22:18:55.785Z,77.40
2022-08-16T22:26:33.326Z,81.50
2022-08-16T22:29:06.311Z,81.50
2022-08-16T22:31:33.774Z,83.00
2022-08-16T22:34:02.334Z,81.70
2022-08-16T22:36:30.647Z,82.30
2022-08-16T22:38:59.139Z,82.90
2022-08-16T22:41:28.668Z,70.20
2022-08-16T22:43:56.414Z,70.20
2022-08-16T22:48:50.997Z,73.50
2022-08-16T22:51:20.031Z,74.60
2022-08-16T23:01:12.668Z,71.10
2022-08-16T23:03:39.587Z,73.20
2022-08-16T23:06:07.112Z,81.70
2022-08-16T23:08:40.542Z,83.30
2022-08-16T23:11:10.327Z,71.50
2022-08-16T23:13:37.347Z,83.40
2022-08-16T23:16:11.444Z,85.30
2022-08-16T23:18:39.731Z,75.20
2022-08-16T23:21:10.296Z,85.50
2022-08-16T23:26:45.525Z,72.10
2022-08-16T23:31:19.835Z,74.70
2022-08-16T23:41:11.520Z,72.50
2022-08-16T23:43:42.845Z,73.30
2022-08-16T23:46:13.803Z,72.70
2022-08-16T23:50:01.989Z,84.90
2022-08-16T23:56:22.791Z,80.80
2022-08-16T23:58:54.281Z,85.30
